Time;durP1;ratioP1;P1;durP2;ratioP2;P2;SDS_P1;SDS_P2;PMS_P1;PMS_P2;Temp;Humidity;BMP_temperature;BMP_pressure;BME280_temperature;BME280_humidity;BME280_pressure;Samples;Min_cycle;Max_cycle;Signal;HPM_P1;HPM_P2
2022/12/08 00:01:40;;;;;;;13.10;7.10;;;;;;;0.52;90.37;99649.95;101445;1320;89619;-59
2022/12/08 00:04:14;;;;;;;13.10;7.50;;;;;;;0.52;90.40;99650.62;101490;1320;95719;-56
2022/12/08 00:09:45;;;;;;;11.80;6.80;;;;;;;0.57;90.50;99658.45;101487;1316;81742;-58
2022/12/08 00:12:19;;;;;;;12.80;7.40;;;;;;;0.59;90.42;99659.89;101514;1320;99096;-58
2022/12/08 00:14:58;;;;;;;10.20;6.40;;;;;;;0.59;90.26;99664.27;101506;1316;89470;-59
2022/12/08 00:17:32;;;;;;;11.40;6.40;;;;;;;0.61;90.35;99667.04;101483;1316;93760;-60
2022/12/08 00:20:08;;;;;;;9.10;5.90;;;;;;;0.66;90.44;99667.21;101502;1320;81229;-56
2022/12/08 00:22:43;;;;;;;9.50;6.20;;;;;;;0.68;90.42;99667.19;101498;1316;80980;-56
2022/12/08 00:25:20;;;;;;;8.50;5.00;;;;;;;0.72;90.37;99669.45;101504;1317;99137;-58
2022/12/08 00:27:56;;;;;;;7.40;5.00;;;;;;;0.78;90.41;99671.77;101467;1316;88222;-58
2022/12/08 00:30:35;;;;;;;8.10;5.20;;;;;;;0.80;90.26;99680.41;101482;1320;96144;-60
2022/12/08 00:33:11;;;;;;;8.50;4.30;;;;;;;0.80;90.23;99684.13;101453;1316;80012;-61
2022/12/08 00:35:45;;;;;;;7.80;4.00;;;;;;;0.80;90.04;99689.67;101446;1316;82254;-56
2022/12/08 00:38:21;;;;;;;7.80;3.60;;;;;;;0.78;90.05;99693.41;101440;1316;97403;-56
2022/12/08 00:40:55;;;;;;;7.30;2.80;;;;;;;0.78;89.88;99697.48;101460;1316;88699;-57
2022/12/08 00:43:29;;;;;;;7.00;3.20;;;;;;;0.74;89.78;99698.70;101471;1316;92927;-56
2022/12/08 00:46:07;;;;;;;5.40;2.70;;;;;;;0.75;89.75;99698.98;101493;1316;79645;-56
2022/12/08 00:48:45;;;;;;;6.90;2.60;;;;;;;0.75;89.62;99705.22;101533;1316;79901;-56
2022/12/08 00:51:19;;;;;;;5.40;2.30;;;;;;;0.76;89.66;99707.04;101386;1320;99503;-57
2022/12/08 00:53:55;;;;;;;6.50;2.40;;;;;;;0.78;89.67;99710.23;101510;1316;88841;-57
2022/12/08 00:56:31;;;;;;;4.90;2.10;;;;;;;0.79;89.54;99711.70;101511;1316;95659;-56
2022/12/08 00:59:06;;;;;;;4.90;2.20;;;;;;;0.84;89.57;99716.72;101411;1319;80457;-56
2022/12/08 01:01:40;;;;;;;5.40;1.90;;;;;;;0.81;89.62;99719.46;101499;1317;83229;-56
2022/12/08 01:04:18;;;;;;;5.20;1.90;;;;;;;0.83;89.52;99721.23;101488;1317;98242;-57
2022/12/08 01:06:52;;;;;;;4.40;2.20;;;;;;;0.82;89.53;99720.30;101469;1316;88243;-59
2022/12/08 01:09:26;;;;;;;5.70;2.20;;;;;;;0.80;89.49;99724.21;101416;1316;94862;-59
2022/12/08 01:12:01;;;;;;;4.00;2.00;;;;;;;0.81;89.32;99733.31;101413;1316;81168;-58
2022/12/08 01:14:35;;;;;;;5.20;2.40;;;;;;;0.81;89.48;99730.80;101442;1316;81292;-59
2022/12/08 01:17:14;;;;;;;6.10;2.10;;;;;;;0.83;89.49;99730.42;101456;1320;99893;-57
2022/12/08 01:19:51;;;;;;;3.60;1.90;;;;;;;0.84;89.58;99732.52;101471;1317;86841;-57
2022/12/08 01:22:27;;;;;;;4.60;2.00;;;;;;;0.86;89.46;99736.59;101472;1320;94335;-57
2022/12/08 01:25:01;;;;;;;4.80;2.00;;;;;;;0.89;89.28;99735.42;101492;1317;80825;-55
2022/12/08 01:27:36;;;;;;;4.60;1.90;;;;;;;0.86;89.28;99736.95;101393;1319;82206;-55
2022/12/08 01:30:15;;;;;;;7.10;2.60;;;;;;;0.84;89.18;99734.08;101495;1316;99018;-58
2022/12/08 01:32:48;;;;;;;5.30;2.30;;;;;;;0.86;89.01;99735.86;101535;1317;88369;-59
2022/12/08 01:35:25;;;;;;;3.80;2.00;;;;;;;0.88;88.95;99732.80;101490;1317;95713;-55
2022/12/08 01:38:05;;;;;;;6.50;2.20;;;;;;;0.91;88.83;99732.56;101475;1317;79995;-56
2022/12/08 01:40:40;;;;;;;4.60;1.90;;;;;;;0.87;88.89;99730.45;101492;1317;82861;-58
2022/12/08 01:43:19;;;;;;;5.10;2.20;;;;;;;0.80;88.74;99728.84;101438;1317;98849;-58
2022/12/08 01:45:53;;;;;;;6.30;2.30;;;;;;;0.72;88.60;99726.58;101515;1317;89059;-56
2022/12/08 01:48:30;;;;;;;6.20;2.40;;;;;;;0.63;88.60;99732.92;101444;1316;95593;-56
2022/12/08 01:51:07;;;;;;;5.60;2.30;;;;;;;0.53;88.58;99732.54;101479;1317;79425;-58
2022/12/08 01:53:43;;;;;;;4.60;2.30;;;;;;;0.49;88.54;99739.52;101456;1316;83263;-59
2022/12/08 01:56:26;;;;;;;4.80;2.30;;;;;;;0.45;88.66;99741.77;101449;1320;98077;-57
2022/12/08 01:59:03;;;;;;;6.30;2.20;;;;;;;0.43;88.83;99742.56;101474;1316;89142;-57
2022/12/08 02:01:37;;;;;;;5.10;2.30;;;;;;;0.46;88.92;99745.46;101457;1317;93656;-58
2022/12/08 02:04:12;;;;;;;5.20;2.30;;;;;;;0.52;88.98;99747.76;101460;1317;82148;-58
2022/12/08 02:06:51;;;;;;;6.50;2.70;;;;;;;0.57;88.77;99745.81;101477;1317;79331;-58
2022/12/08 02:09:25;;;;;;;4.60;2.50;;;;;;;0.62;88.79;99746.88;101431;1316;98833;-57
2022/12/08 02:12:00;;;;;;;5.80;2.30;;;;;;;0.62;88.74;99747.33;101515;1316;88325;-58
2022/12/08 02:14:35;;;;;;;5.10;2.30;;;;;;;0.66;88.63;99747.38;101453;1317;92628;-58
2022/12/08 02:17:22;;;;;;;4.00;2.30;;;;;;;0.64;88.64;99745.39;101494;1317;79617;-60
2022/12/08 02:20:44;;;;;;;5.40;2.20;;;;;;;0.60;88.62;99740.23;101513;1320;82321;-58
2022/12/08 02:23:35;;;;;;;5.90;2.60;;;;;;;0.63;88.55;99743.38;101427;1316;97659;-59
2022/12/08 02:26:58;;;;;;;4.40;2.10;;;;;;;0.55;88.69;99745.66;101505;1317;89505;-56
2022/12/08 02:30:15;;;;;;;5.20;2.30;;;;;;;0.47;88.61;99747.45;101460;1316;94669;-58
2022/12/08 02:33:34;;;;;;;5.10;2.20;;;;;;;0.41;88.50;99747.34;101404;1316;81151;-56
2022/12/08 02:36:20;;;;;;;5.40;2.30;;;;;;;0.38;88.44;99748.69;101451;1316;83183;-59
2022/12/08 02:39:08;;;;;;;5.90;3.00;;;;;;;0.34;88.47;99745.86;101456;1316;97915;-60
2022/12/08 02:41:52;;;;;;;6.10;2.70;;;;;;;0.31;88.70;99747.20;101456;1316;88725;-57
2022/12/08 02:44:35;;;;;;;5.70;2.60;;;;;;;0.35;88.55;99749.61;101426;1317;95187;-58
2022/12/08 02:47:17;;;;;;;5.80;3.10;;;;;;;0.40;88.51;99746.36;101450;1316;80312;-56
2022/12/08 02:49:51;;;;;;;5.00;2.50;;;;;;;0.45;88.52;99753.52;101498;1316;81762;-59
2022/12/08 02:52:46;;;;;;;6.60;2.90;;;;;;;0.46;88.44;99752.15;101448;1317;97749;-59
2022/12/08 02:55:31;;;;;;;4.20;2.70;;;;;;;0.46;88.49;99755.50;101494;1316;88834;-59
2022/12/08 02:58:49;;;;;;;4.50;2.80;;;;;;;0.47;88.53;99754.59;101463;1317;94245;-58
2022/12/08 03:01:53;;;;;;;6.80;3.10;;;;;;;0.49;88.37;99763.26;101493;1316;82068;-57
2022/12/08 03:04:41;;;;;;;6.60;3.50;;;;;;;0.46;88.45;99765.77;101492;1316;81778;-58
2022/12/08 03:07:25;;;;;;;5.70;3.10;;;;;;;0.46;88.40;99767.20;101482;1320;96953;-57
2022/12/08 03:10:10;;;;;;;8.30;3.40;;;;;;;0.46;88.40;99770.22;101470;1316;89036;-57
2022/12/08 03:12:53;;;;;;;5.50;3.10;;;;;;;0.45;88.42;99767.86;101469;1316;93267;-57
2022/12/08 03:15:30;;;;;;;7.40;3.50;;;;;;;0.43;88.28;99770.00;101469;1316;81810;-57
2022/12/08 03:18:11;;;;;;;6.20;3.40;;;;;;;0.42;88.34;99771.33;101420;1316;83331;-58
2022/12/08 03:20:50;;;;;;;7.20;3.50;;;;;;;0.42;88.26;99772.36;101471;1316;97285;-56
2022/12/08 03:23:25;;;;;;;7.10;3.70;;;;;;;0.40;88.16;99775.95;101450;1316;88468;-56
2022/12/08 03:26:09;;;;;;;6.70;3.20;;;;;;;0.35;88.34;99777.27;101461;1316;96196;-55
2022/12/08 03:28:48;;;;;;;5.90;3.40;;;;;;;0.36;88.14;99779.86;101408;1317;81775;-57
2022/12/08 03:31:25;;;;;;;7.80;3.70;;;;;;;0.35;88.20;99782.80;101495;1316;81079;-58
2022/12/08 03:34:02;;;;;;;7.30;3.40;;;;;;;0.34;88.21;99784.98;101453;1320;99420;-58
2022/12/08 03:36:36;;;;;;;5.70;3.30;;;;;;;0.37;88.12;99791.29;101544;1317;86494;-56
2022/12/08 03:39:13;;;;;;;8.30;3.80;;;;;;;0.34;88.17;99790.09;101472;1317;94966;-56
2022/12/08 03:41:49;;;;;;;5.80;3.50;;;;;;;0.30;88.20;99795.30;101502;1316;77762;-58
2022/12/08 03:44:24;;;;;;;8.00;3.70;;;;;;;0.27;88.37;99792.42;101502;1317;81648;-56
2022/12/08 03:46:59;;;;;;;6.60;3.50;;;;;;;0.24;88.35;99795.84;101475;1316;98294;-58
2022/12/08 03:49:34;;;;;;;6.90;4.00;;;;;;;0.23;88.41;99795.63;101498;1317;87855;-58
2022/12/08 03:52:09;;;;;;;;;;;;;;;0.24;88.34;99795.52;101458;1320;94094;-58
2022/12/08 03:54:49;;;;;;;7.60;4.10;;;;;;;0.24;88.42;99798.35;101489;1317;79223;-58
2022/12/08 03:57:33;;;;;;;6.90;4.80;;;;;;;0.27;88.48;99798.38;101465;1316;82270;-58
2022/12/08 04:00:17;;;;;;;6.40;4.00;;;;;;;0.31;88.53;99799.06;101446;1316;99303;-57
2022/12/08 04:02:50;;;;;;;9.30;4.30;;;;;;;0.32;88.69;99802.55;101447;1316;88240;-57
2022/12/08 04:05:25;;;;;;;8.20;4.80;;;;;;;0.35;88.77;99808.05;101450;1320;93767;-58
2022/12/08 04:08:03;;;;;;;7.30;4.40;;;;;;;0.40;88.77;99806.59;101466;1315;80535;-57
2022/12/08 04:10:40;;;;;;;7.70;4.30;;;;;;;0.47;88.72;99811.27;101482;1316;82974;-57
2022/12/08 04:13:16;;;;;;;7.50;4.70;;;;;;;0.49;88.71;99814.63;101446;1316;98843;-54
2022/12/08 04:15:50;;;;;;;11.00;5.00;;;;;;;0.52;88.51;99814.69;101468;1316;89516;-59
2022/12/08 04:18:28;;;;;;;7.30;4.50;;;;;;;0.53;88.58;99816.83;101438;1317;94780;-59
2022/12/08 04:21:04;;;;;;;7.60;5.10;;;;;;;0.57;88.59;99819.02;101470;1315;78375;-58
2022/12/08 04:23:41;;;;;;;7.00;5.00;;;;;;;0.62;88.46;99826.04;101444;1316;83225;-58
2022/12/08 04:26:16;;;;;;;8.30;4.80;;;;;;;0.65;88.59;99823.63;101506;1316;98576;-59
2022/12/08 04:28:50;;;;;;;8.10;5.20;;;;;;;0.65;88.46;99822.41;101520;1317;89577;-60
2022/12/08 04:31:27;;;;;;;9.90;5.20;;;;;;;0.65;88.33;99822.23;101482;1320;94312;-57
2022/12/08 04:34:01;;;;;;;10.70;5.90;;;;;;;0.61;88.03;99827.02;101168;1325;79307;-56
2022/12/08 04:36:35;;;;;;;13.10;6.10;;;;;;;0.53;88.18;99829.63;101198;1323;81852;-59
2022/12/08 04:39:09;;;;;;;9.20;5.90;;;;;;;0.48;88.11;99832.75;101185;1326;97083;-59
2022/12/08 04:41:43;;;;;;;9.30;5.80;;;;;;;0.40;88.20;99836.30;101179;1323;88427;-57
2022/12/08 04:44:22;;;;;;;10.30;6.30;;;;;;;0.31;88.12;99836.31;101147;1325;95949;-58
2022/12/08 04:46:58;;;;;;;10.90;6.70;;;;;;;0.18;88.10;99839.21;101142;1323;81981;-57
2022/12/08 04:49:33;;;;;;;8.60;5.70;;;;;;;0.03;88.17;99835.98;101150;1325;81287;-57
2022/12/08 04:52:11;;;;;;;10.20;6.20;;;;;;;-0.01;88.21;99840.41;101115;1323;98760;-58
2022/12/08 04:54:51;;;;;;;11.50;6.80;;;;;;;-0.02;88.33;99840.64;101145;1326;88820;-58
2022/12/08 04:57:27;;;;;;;11.30;7.50;;;;;;;-0.04;88.32;99840.80;101144;1322;94243;-56
2022/12/08 05:00:06;;;;;;;11.90;7.40;;;;;;;-0.05;88.25;99842.67;101147;1322;82382;-58
2022/12/08 05:02:41;;;;;;;12.60;7.30;;;;;;;-0.03;88.33;99848.38;101190;1326;82858;-59
2022/12/08 05:05:15;;;;;;;11.00;7.50;;;;;;;0.01;88.43;99852.78;101195;1326;99008;-57
2022/12/08 05:07:51;;;;;;;10.50;6.80;;;;;;;0.08;88.45;99854.51;101173;1326;87853;-56
2022/12/08 05:10:27;;;;;;;13.00;7.10;;;;;;;0.16;88.45;99856.95;101208;1323;95348;-58
2022/12/08 05:13:04;;;;;;;13.20;6.90;;;;;;;0.24;88.54;99858.67;101140;1325;79510;-58
2022/12/08 05:15:41;;;;;;;10.00;6.90;;;;;;;0.31;88.66;99861.08;101161;1325;81760;-59
2022/12/08 05:18:17;;;;;;;10.70;6.70;;;;;;;0.37;88.56;99862.24;101127;1323;98033;-59
2022/12/08 05:20:54;;;;;;;11.30;7.80;;;;;;;0.41;88.54;99865.65;101156;1322;87798;-57
2022/12/08 05:23:31;;;;;;;10.60;7.00;;;;;;;0.40;88.54;99860.73;101139;1326;95575;-59
2022/12/08 05:26:04;;;;;;;;;;;;;;;0.44;88.53;99859.52;101130;1325;80888;-58
2022/12/08 05:28:40;;;;;;;9.20;6.40;;;;;;;0.46;88.42;99857.19;101126;1325;82456;-59
2022/12/08 05:31:15;;;;;;;9.30;6.70;;;;;;;0.46;88.46;99854.89;101156;1323;97742;-58
2022/12/08 05:33:54;;;;;;;10.90;6.10;;;;;;;0.43;88.38;99857.11;101466;1317;88605;-58
2022/12/08 05:36:33;;;;;;;11.10;6.70;;;;;;;0.38;88.42;99858.69;101448;1316;93424;-58
2022/12/08 05:39:12;;;;;;;9.60;6.40;;;;;;;0.29;88.33;99857.86;101449;1317;81607;-58
2022/12/08 05:41:49;;;;;;;11.30;6.80;;;;;;;0.20;88.37;99854.69;101441;1317;82190;-58
2022/12/08 05:44:23;;;;;;;12.20;7.50;;;;;;;0.11;88.25;99859.52;101503;1316;98026;-56
2022/12/08 05:46:57;;;;;;;12.60;6.60;;;;;;;0.05;88.31;99859.36;101488;1316;86232;-59
2022/12/08 05:49:36;;;;;;;11.50;7.00;;;;;;;-0.02;88.40;99858.89;101457;1316;92854;-58
2022/12/08 05:52:12;;;;;;;14.70;7.90;;;;;;;-0.06;88.32;99864.58;101480;1316;77717;-57
2022/12/08 05:54:49;;;;;;;12.80;7.30;;;;;;;-0.11;88.47;99863.25;101475;1316;80984;-58
2022/12/08 05:57:23;;;;;;;12.90;7.90;;;;;;;-0.18;88.39;99863.13;101504;1317;97504;-57
2022/12/08 06:00:00;;;;;;;11.90;7.60;;;;;;;-0.25;88.34;99867.36;101468;1317;88104;-57
2022/12/08 06:02:36;;;;;;;13.50;7.90;;;;;;;-0.34;88.31;99872.88;101444;1317;93305;-57
2022/12/08 06:05:11;;;;;;;12.90;8.10;;;;;;;-0.39;88.29;99881.52;101508;1316;79922;-57
2022/12/08 06:07:48;;;;;;;11.10;7.60;;;;;;;-0.46;88.37;99892.02;101464;1316;79649;-57
2022/12/08 06:10:24;;;;;;;13.10;8.20;;;;;;;-0.46;88.48;99897.67;101458;1316;97398;-58
2022/12/08 06:13:00;;;;;;;14.20;7.30;;;;;;;-0.37;88.68;99900.58;101476;1317;87404;-58
2022/12/08 06:15:36;;;;;;;10.00;6.80;;;;;;;-0.25;88.74;99906.41;101463;1316;95366;-59
2022/12/08 06:18:13;;;;;;;12.10;7.90;;;;;;;-0.17;88.78;99906.82;101490;1316;78639;-61
2022/12/08 06:20:51;;;;;;;13.80;7.30;;;;;;;-0.11;88.85;99911.20;101477;1316;81558;-58
2022/12/08 06:23:28;;;;;;;14.30;7.80;;;;;;;-0.02;88.97;99915.71;101448;1317;98160;-58
2022/12/08 06:26:08;;;;;;;12.80;8.20;;;;;;;0.07;88.89;99919.37;101459;1316;87804;-58
2022/12/08 06:28:43;;;;;;;14.00;8.40;;;;;;;0.14;88.83;99923.16;101471;1317;94982;-57
2022/12/08 06:31:18;;;;;;;;;;;;;;;0.17;88.78;99920.44;101491;1316;78053;-59
2022/12/08 06:33:51;;;;;;;;;;;;;;;0.22;88.72;99917.98;101512;1317;83223;-58
2022/12/08 06:36:27;;;;;;;14.30;8.70;;;;;;;0.29;88.68;99918.79;101443;1316;98404;-59
2022/12/08 06:39:04;;;;;;;15.90;8.20;;;;;;;0.29;88.78;99917.71;101468;1316;87593;-59
2022/12/08 06:44:30;;;;;;;11.80;8.20;;;;;;;0.41;88.45;99917.91;101462;1316;80536;-58
2022/12/08 06:47:04;;;;;;;10.40;7.60;;;;;;;0.45;88.39;99914.52;101478;1316;84447;-58
2022/12/08 06:49:42;;;;;;;16.90;8.30;;;;;;;0.44;88.54;99921.13;101478;1316;98527;-59
2022/12/08 06:52:17;;;;;;;12.30;7.60;;;;;;;0.49;88.37;99926.40;100861;1316;824459;-56
2022/12/08 06:54:53;;;;;;;14.00;7.60;;;;;;;0.53;88.39;99933.11;101427;1317;92947;-57
2022/12/08 06:57:29;;;;;;;12.50;7.70;;;;;;;0.52;88.30;99931.61;101440;1316;82098;-60
2022/12/08 07:00:08;;;;;;;11.20;7.90;;;;;;;0.54;88.22;99931.77;101455;1318;81465;-60
2022/12/08 07:02:43;;;;;;;11.80;7.80;;;;;;;0.58;88.22;99933.17;101465;1316;99333;-61
2022/12/08 07:05:18;;;;;;;11.30;6.80;;;;;;;0.59;88.26;99935.53;101496;1316;87994;-57
2022/12/08 07:07:53;;;;;;;12.50;8.00;;;;;;;0.65;88.12;99931.54;101473;1320;94993;-57
2022/12/08 07:10:30;;;;;;;13.00;7.30;;;;;;;0.67;88.03;99934.04;101504;1317;80080;-57
2022/12/08 07:13:04;;;;;;;12.50;7.40;;;;;;;0.68;88.01;99933.41;101501;1317;82631;-50
2022/12/08 07:15:44;;;;;;;17.50;8.70;;;;;;;0.63;87.96;99936.34;101492;1316;98621;-59
2022/12/08 07:18:20;;;;;;;15.50;8.00;;;;;;;0.62;87.89;99942.95;101492;1316;87374;-59
2022/12/08 07:21:05;;;;;;;11.70;7.30;;;;;;;0.54;87.82;99944.17;101483;1316;95761;-60
2022/12/08 07:23:39;;;;;;;13.90;7.80;;;;;;;0.54;88.10;99947.73;101433;1316;81424;-60
2022/12/08 07:26:13;;;;;;;10.90;7.60;;;;;;;0.60;88.10;99951.12;101482;1316;83315;-59
2022/12/08 07:28:46;;;;;;;;;;;;;;;0.65;88.02;99957.78;101476;1316;99668;-59
2022/12/08 07:31:25;;;;;;;11.90;8.10;;;;;;;0.71;87.97;99958.40;101478;1316;88687;-59
2022/12/08 07:34:00;;;;;;;11.40;7.30;;;;;;;0.74;87.92;99956.92;101425;1316;95384;-60
2022/12/08 07:36:34;;;;;;;14.60;7.50;;;;;;;0.77;88.10;99956.83;101315;1321;80523;-60
2022/12/08 07:39:13;;;;;;;11.10;7.70;;;;;;;1.01;88.10;99954.29;101467;1320;83532;-60
2022/12/08 07:41:50;;;;;;;15.70;8.30;;;;;;;1.24;87.83;99955.72;101451;1316;97604;-55
2022/12/08 07:44:28;;;;;;;13.00;8.20;;;;;;;1.44;87.60;99960.38;101430;1320;89005;-57
2022/12/08 07:47:06;;;;;;;14.60;8.20;;;;;;;1.63;87.53;99964.61;101491;1318;95237;-56
2022/12/08 07:49:44;;;;;;;13.60;8.90;;;;;;;1.74;87.32;99965.34;101442;1316;80023;-58
2022/12/08 07:52:18;;;;;;;12.10;8.20;;;;;;;1.87;87.11;99969.44;101532;1316;81472;-58
2022/12/08 07:54:55;;;;;;;17.10;9.60;;;;;;;2.21;87.01;99966.29;101510;1320;98903;-59
2022/12/08 07:57:31;;;;;;;14.50;8.70;;;;;;;2.62;86.27;99962.70;101485;1316;89167;-60
2022/12/08 08:00:11;;;;;;;15.10;8.60;;;;;;;2.79;85.86;99960.42;101462;1317;95696;-56
2022/12/08 08:02:46;;;;;;;14.40;8.70;;;;;;;2.83;85.43;99964.48;101497;1320;79012;-56
2022/12/08 08:05:27;;;;;;;12.10;8.90;;;;;;;2.63;85.61;99966.14;101482;1317;81065;-60
2022/12/08 08:08:04;;;;;;;16.30;8.70;;;;;;;2.47;85.40;99965.92;101452;1320;98428;-59
2022/12/08 08:10:41;;;;;;;13.40;8.60;;;;;;;2.33;85.07;99964.05;101466;1320;89172;-58
2022/12/08 08:13:15;;;;;;;18.50;9.30;;;;;;;2.19;85.04;99964.58;101464;1317;92411;-59
2022/12/08 08:15:48;;;;;;;;;;;;;;;2.06;85.17;99970.06;101418;1317;82129;-57
2022/12/08 08:18:25;;;;;;;11.90;7.30;;;;;;;1.95;85.31;99965.62;101440;1317;83513;-57
2022/12/08 08:21:00;;;;;;;13.70;7.60;;;;;;;1.96;85.10;99971.80;101480;1317;96377;-57
2022/12/08 08:23:35;;;;;;;14.60;8.30;;;;;;;1.93;85.18;99973.36;101462;1320;89119;-59
2022/12/08 08:26:10;;;;;;;13.90;8.10;;;;;;;2.21;84.93;99975.52;101484;1316;95245;-57
2022/12/08 08:28:48;;;;;;;13.20;7.50;;;;;;;2.91;84.59;99977.77;101456;1316;80459;-58
2022/12/08 08:31:29;;;;;;;12.80;8.30;;;;;;;3.44;84.05;99974.52;101495;1316;82471;-58
2022/12/08 08:34:05;;;;;;;11.60;7.60;;;;;;;3.50;83.34;99973.55;101199;1326;97631;-58
2022/12/08 08:36:42;;;;;;;12.40;7.10;;;;;;;3.37;83.34;99975.66;101182;1326;87580;-58
2022/12/08 08:39:18;;;;;;;15.00;8.10;;;;;;;3.16;83.35;99979.54;101185;1324;94833;-59
2022/12/08 08:41:56;;;;;;;13.20;8.00;;;;;;;2.99;83.37;99980.15;101149;1323;79639;-60
2022/12/08 08:44:37;;;;;;;12.90;8.70;;;;;;;2.88;83.52;99980.00;101278;1320;82003;-59
2022/12/08 08:47:12;;;;;;;13.00;7.90;;;;;;;2.84;83.56;99973.59;101206;1322;98417;-61
2022/12/08 08:49:48;;;;;;;13.80;8.40;;;;;;;3.04;83.54;99974.20;101178;1322;88168;-61
2022/12/08 08:52:27;;;;;;;14.70;8.30;;;;;;;3.30;83.59;99977.04;101133;1326;94566;-61
2022/12/08 08:55:01;;;;;;;14.60;8.00;;;;;;;3.76;83.71;99976.10;101166;1325;79549;-60
2022/12/08 08:57:37;;;;;;;12.70;8.00;;;;;;;4.10;83.36;99979.51;101151;1323;82952;-62
2022/12/08 09:00:14;;;;;;;14.60;8.50;;;;;;;4.26;83.29;99981.06;101157;1323;97959;-60
2022/12/08 09:02:48;;;;;;;12.20;8.30;;;;;;;4.52;82.53;99981.45;101142;1323;87807;-60
2022/12/08 09:05:24;;;;;;;12.40;7.60;;;;;;;4.59;82.24;99981.63;101166;1323;95232;-60
2022/12/08 09:08:00;;;;;;;11.50;8.40;;;;;;;4.70;82.17;99983.16;101172;1323;79727;-59
2022/12/08 09:10:37;;;;;;;13.20;8.10;;;;;;;4.94;81.67;99982.56;101204;1326;83669;-60
2022/12/08 09:13:12;;;;;;;12.30;8.30;;;;;;;4.96;81.70;99982.13;101186;1326;97460;-60
2022/12/08 09:15:48;;;;;;;12.20;8.20;;;;;;;4.92;81.28;99978.20;101209;1324;86421;-62
2022/12/08 09:18:25;;;;;;;11.90;8.50;;;;;;;5.07;81.11;99979.15;101216;1326;95914;-62
2022/12/08 09:21:05;;;;;;;12.20;8.20;;;;;;;5.47;80.94;99977.48;101241;1322;79313;-60
2022/12/08 09:23:40;;;;;;;12.70;8.00;;;;;;;5.67;79.80;99973.02;101165;1323;83189;-60
2022/12/08 09:26:21;;;;;;;10.70;7.60;;;;;;;5.69;79.13;99978.06;101168;1326;98013;-61
2022/12/08 09:28:59;;;;;;;11.50;7.40;;;;;;;5.55;78.82;99975.34;101151;1323;88717;-60
2022/12/08 09:31:34;;;;;;;11.40;7.50;;;;;;;5.44;78.52;99973.98;101129;1322;96550;-59
2022/12/08 09:34:10;;;;;;;12.80;7.20;;;;;;;5.20;78.28;99972.64;101238;1321;81277;-59
2022/12/08 09:36:43;;;;;;;12.50;7.50;;;;;;;4.94;78.57;99972.64;101289;1319;82311;-58
2022/12/08 09:39:17;;;;;;;10.80;7.30;;;;;;;4.78;78.60;99972.39;101230;1323;99460;-54
2022/12/08 09:41:58;;;;;;;9.40;7.00;;;;;;;4.85;78.27;99965.52;101209;1320;89086;-59
2022/12/08 09:45:08;;;;;;;12.70;7.90;;;;;;;4.96;78.74;99964.41;101206;1320;94870;-59
2022/12/08 09:47:47;;;;;;;13.80;7.50;;;;;;;5.01;78.50;99961.57;101234;1322;80268;-61
2022/12/08 09:50:34;;;;;;;10.70;6.90;;;;;;;4.76;78.23;99958.03;101270;1322;81606;-55
2022/12/08 09:53:16;;;;;;;12.50;7.70;;;;;;;4.55;78.50;99962.08;101307;1319;98582;-58
2022/12/08 09:55:53;;;;;;;12.30;8.70;;;;;;;4.52;78.58;99961.52;101311;1323;87896;-58
2022/12/08 09:58:51;;;;;;;14.10;8.40;;;;;;;4.60;78.81;99963.33;101279;1323;93215;-55
2022/12/08 10:01:31;;;;;;;14.60;8.50;;;;;;;4.56;78.48;99958.17;101283;1323;78416;-60
2022/12/08 10:04:22;;;;;;;14.00;8.70;;;;;;;4.52;78.31;99959.02;101266;1322;82382;-62
2022/12/08 10:07:10;;;;;;;14.80;8.90;;;;;;;4.43;78.49;99955.75;101253;1322;98123;-63
2022/12/08 10:09:59;;;;;;;14.10;9.20;;;;;;;4.32;78.81;99955.46;101257;1324;88839;-59
2022/12/08 10:12:46;;;;;;;11.00;7.90;;;;;;;4.29;79.05;99951.64;101254;1322;95954;-61
2022/12/08 10:15:41;;;;;;;12.80;9.80;;;;;;;4.36;79.30;99949.18;101242;1323;79928;-61
2022/12/08 10:18:24;;;;;;;16.30;10.00;;;;;;;4.38;79.32;99946.46;101270;1322;81459;-60
2022/12/08 10:21:17;;;;;;;12.30;9.30;;;;;;;4.44;79.37;99942.34;101286;1323;99028;-62
2022/12/08 10:23:58;;;;;;;12.80;9.10;;;;;;;4.47;79.40;99940.29;101261;1322;89328;-62
2022/12/08 10:26:35;;;;;;;17.90;10.40;;;;;;;4.51;79.51;99938.42;101285;1324;94490;-62
2022/12/08 10:29:14;;;;;;;14.70;10.40;;;;;;;4.44;79.30;99932.61;101251;1323;79186;-62
2022/12/08 10:31:48;;;;;;;15.20;9.70;;;;;;;4.42;79.35;99922.81;101288;1322;82499;-60
2022/12/08 10:34:26;;;;;;;15.80;11.10;;;;;;;4.42;79.20;99925.71;101479;1317;97648;-63
2022/12/08 10:37:09;;;;;;;15.20;10.50;;;;;;;4.42;79.53;99930.37;101477;1316;88438;-63
2022/12/08 10:39:50;;;;;;;15.40;10.90;;;;;;;4.51;79.53;99931.00;101485;1316;95945;-63
2022/12/08 10:42:35;;;;;;;16.30;12.00;;;;;;;4.51;79.41;99926.89;101469;1317;79899;-57
2022/12/08 10:45:29;;;;;;;16.40;11.40;;;;;;;4.43;79.57;99928.44;101492;1317;83454;-59
2022/12/08 10:48:14;;;;;;;15.40;10.20;;;;;;;4.31;79.54;99929.69;101525;1317;99292;-57
2022/12/08 10:50:57;;;;;;;14.00;10.60;;;;;;;4.17;79.50;99919.94;101534;1320;87510;-61
2022/12/08 10:53:47;;;;;;;20.00;11.30;;;;;;;4.14;79.53;99918.42;101526;1320;92985;-62
2022/12/08 10:56:28;;;;;;;16.00;10.50;;;;;;;4.14;79.58;99917.91;101481;1320;82279;-59
2022/12/08 10:59:22;;;;;;;16.20;11.10;;;;;;;4.13;79.74;99917.68;101481;1320;82910;-60
2022/12/08 11:02:00;;;;;;;20.50;11.60;;;;;;;4.14;79.72;99914.41;101483;1317;99377;-59
2022/12/08 11:04:43;;;;;;;16.30;11.30;;;;;;;3.98;79.60;99913.26;101475;1317;89455;-58
2022/12/08 11:07:24;;;;;;;15.30;11.70;;;;;;;3.90;79.56;99910.78;101458;1320;94801;-59
2022/12/08 11:10:01;;;;;;;18.90;11.60;;;;;;;3.95;79.97;99912.81;101512;1316;79454;-62
2022/12/08 11:12:36;;;;;;;15.80;11.20;;;;;;;4.02;80.08;99911.38;101499;1317;80792;-62
2022/12/08 11:15:19;;;;;;;15.80;11.20;;;;;;;4.01;79.75;99908.11;101492;1316;98125;-62
2022/12/08 11:18:07;;;;;;;16.80;11.40;;;;;;;4.00;80.21;99907.25;101499;1316;90704;-62
2022/12/08 11:20:46;;;;;;;18.70;12.20;;;;;;;4.00;80.29;99900.01;101443;1316;94017;-62
2022/12/08 11:23:28;;;;;;;14.50;11.60;;;;;;;3.93;80.52;99894.30;101522;1316;78726;-62
2022/12/08 11:26:12;;;;;;;19.20;12.60;;;;;;;3.92;80.23;99893.70;101534;1320;82535;-62
2022/12/08 11:28:49;;;;;;;18.40;12.10;;;;;;;3.85;80.37;99890.58;101528;1316;97936;-61
2022/12/08 11:31:37;;;;;;;20.00;13.00;;;;;;;3.83;80.42;99890.96;101460;1320;89119;-61
2022/12/08 11:34:22;;;;;;;20.70;12.80;;;;;;;3.85;80.60;99888.58;101241;1324;93175;-63
2022/12/08 11:36:58;;;;;;;18.80;12.30;;;;;;;3.87;80.68;99889.08;101231;1323;80474;-60
2022/12/08 11:39:44;;;;;;;18.50;12.30;;;;;;;3.85;80.73;99887.54;101295;1320;81281;-60
2022/12/08 11:42:29;;;;;;;17.70;13.10;;;;;;;3.87;80.72;99878.40;101278;1323;98229;-57
2022/12/08 11:45:13;;;;;;;19.10;13.00;;;;;;;3.92;80.79;99880.69;101285;1324;87556;-61
2022/12/08 11:47:58;;;;;;;18.70;13.10;;;;;;;3.90;80.91;99882.58;101320;1324;96320;-60
2022/12/08 11:50:47;;;;;;;16.60;12.50;;;;;;;3.88;80.78;99878.64;101310;1324;78953;-59
2022/12/08 11:53:34;;;;;;;20.70;14.30;;;;;;;3.86;80.97;99878.00;101317;1322;82431;-56
2022/12/08 11:56:18;;;;;;;19.70;13.90;;;;;;;3.78;81.06;99875.71;101276;1324;99517;-58
2022/12/08 11:59:10;;;;;;;21.80;14.80;;;;;;;3.73;81.07;99874.92;101247;1323;88070;-59
2022/12/08 12:01:46;;;;;;;22.60;14.60;;;;;;;3.66;81.11;99875.83;101277;1324;93668;-59
2022/12/08 12:04:30;;;;;;;22.90;15.60;;;;;;;3.63;81.42;99871.08;101260;1320;80410;-59
2022/12/08 12:07:41;;;;;;;22.40;15.90;;;;;;;3.73;81.44;99870.14;101273;1323;82992;-58
2022/12/08 12:10:44;;;;;;;22.60;16.40;;;;;;;3.68;81.46;99870.22;101192;1320;98619;-58
2022/12/08 12:13:54;;;;;;;25.00;17.30;;;;;;;3.64;81.58;99871.23;101230;1322;87527;-59
2022/12/08 12:16:51;;;;;;;20.40;14.90;;;;;;;3.60;81.77;99876.64;101217;1322;95479;-60
2022/12/08 12:19:29;;;;;;;25.10;16.40;;;;;;;3.53;81.95;99876.94;101215;1322;81520;-60
2022/12/08 12:22:16;;;;;;;22.50;15.60;;;;;;;3.50;81.97;99870.91;101286;1320;81648;-61
2022/12/08 12:24:56;;;;;;;25.30;16.80;;;;;;;3.50;81.97;99869.75;101280;1323;100945;-59
2022/12/08 12:27:38;;;;;;;23.70;16.00;;;;;;;3.48;81.94;99864.65;101247;1324;89002;-59
2022/12/08 12:30:26;;;;;;;23.60;17.90;;;;;;;3.44;82.15;99863.77;101266;1322;93544;-58